CheckWX is a tool to help pilots better visualize weather data.  It is not intended as a substitute for an official pre-flight weather briefing.

20:16:47 UTC

KCDD METAR
Scotts Seaplane Base
Crane Lake, Minnesota, USA
Current

24 mins ago

KCDD 041953Z AUTO 28009G18KT 223V303 10SM CLR 24/M03 A2974 RMK AO2
Observed
Jun-4 @ 19:53 UTC
Wind
  • 280° at 9 KTS
  • Gusting to 18 KTS
Visibility
Flight Rules
VFR
Cloud Levels
  • Clear skies
Temperature
24°C / 75°F
Dewpoint
-3°C / 27°F
Humidity
16%
Altimeter
29.74" Hg
Pressure
1007.12 hPa
Previous

43 mins ago

KCDD 041934Z AUTO 27006G20KT 10SM CLR 24/M03 A2974 RMK AO2
Observed
Jun-4 @ 19:34 UTC
Wind
  • 270° at 6 KTS
  • Gusting to 20 KTS
Visibility
Flight Rules
VFR
Cloud Levels
  • Clear skies
Temperature
24°C / 75°F
Dewpoint
-3°C / 27°F
Humidity
16%
Altimeter
29.74" Hg
Pressure
1007.12 hPa
Previous

44 mins ago

KCDD 041933Z AUTO 27006G20KT 10SM CLR 24/M03 A2974 RMK AO2
Observed
Jun-4 @ 19:33 UTC
Wind
  • 270° at 6 KTS
  • Gusting to 20 KTS
Visibility
Flight Rules
VFR
Cloud Levels
  • Clear skies
Temperature
24°C / 75°F
Dewpoint
-3°C / 27°F
Humidity
16%
Altimeter
29.74" Hg
Pressure
1007.12 hPa